Grand Bahama International Airport
MYGF : rendu visible

Aérodrome :











RETROUVEZ-NOUS SUR...

 
LOGIN :

S'inscrire | Disclaimer

   EN    FR    IT 

 









Légende :    VFR   VFR Marginal   IFR   IFR Intensif   IFR Très Intensif
Visi : 
Plafond : 
>= 8 km
>= 3000ft
5 à 8 km
1000 à 3000 ft
1500m à 5 km
500 à 1000 ft
800 à 1500m
200 à 500 ft
< 800m
< 200 ft
Symboles :   Orages  Brouillard  Fortes neiges  Fortes précipitations  Vent > 20 kt






- Altitude de l'aérodrome : 7 ft
- Code IATA : FPO


MYGF - Grand Bahama International

DERNIER METAR :
  • 311700Z 18007KT 9999 SCT018TCU BKN250 29/24 A3005

METARs EXPIRÉS :
  • 311600Z 18007KT 9999 SCT018TCU BKN250 29/24 A3006
  • 311500Z 13004KT 9999 SCT018TCU BKN250 29/24 A3008

TAF MYGF
Valide du 31 à 06h jusqu'au 01 à 06h UTC


310430Z 3106/0106 13004KT 9999 SCT030 BKN200
BECMG 3112/3114 VRB02KT
FIR MYNA / Amérique du Nord



MET'MAP, la Météo Aéronautique d'un coup d'oeil ! - Copyright ORBIFLY Décembre 2007 - Disclaimer

ORBIFLY MET'MAP TEAM :

Programmation & Développement : Alexandra Zaïnal
Sur une idée originale de : Baudouin d'Aumeries
Assistance à la programmation : Marc-Olivier Méhu
Soutien technique & logistique : Manuel Goepfert

Contact : metmap@orbifly.com




SOURCES & CREDITS :

   NOAA       Earth
Advisory